sensor_id;sensor_type;location;lat;lon;timestamp;pressure;altitude;pressure_sealevel;temperature;humidity
67099;BME280;54288;53.046;5.668;2023-05-08T00:13:46;102233.28;;;13.08;100.00
67099;BME280;54288;53.046;5.668;2023-05-08T00:16:12;102239.44;;;13.07;100.00
67099;BME280;54288;53.046;5.668;2023-05-08T00:18:38;102237.69;;;13.04;100.00
67099;BME280;54288;53.046;5.668;2023-05-08T00:21:05;102236.88;;;12.98;100.00
67099;BME280;54288;53.046;5.668;2023-05-08T00:23:32;102229.00;;;12.93;100.00
67099;BME280;54288;53.046;5.668;2023-05-08T00:25:57;102242.13;;;12.92;100.00
67099;BME280;54288;53.046;5.668;2023-05-08T00:28:23;102230.78;;;12.87;100.00
67099;BME280;54288;53.046;5.668;2023-05-08T00:30:49;102231.66;;;12.86;100.00
67099;BME280;54288;53.046;5.668;2023-05-08T05:36:36;102271.78;;;15.75;92.25
67099;BME280;54288;53.046;5.668;2023-05-08T05:39:02;102279.91;;;15.64;94.08
67099;BME280;54288;53.046;5.668;2023-05-08T05:41:29;102270.75;;;15.82;93.91
67099;BME280;54288;53.046;5.668;2023-05-08T05:43:55;102277.19;;;16.13;92.45
67099;BME280;54288;53.046;5.668;2023-05-08T05:46:21;102283.34;;;16.12;87.92
67099;BME280;54288;53.046;5.668;2023-05-08T05:48:52;102278.25;;;15.57;91.89
67099;BME280;54288;53.046;5.668;2023-05-08T05:51:18;102287.94;;;15.04;93.94
67099;BME280;54288;53.046;5.668;2023-05-08T05:53:44;102286.56;;;14.82;97.37
67099;BME280;54288;53.046;5.668;2023-05-08T05:56:10;102294.56;;;14.76;96.65
67099;BME280;54288;53.046;5.668;2023-05-08T05:58:36;102287.59;;;14.70;98.14
67099;BME280;54288;53.046;5.668;2023-05-08T06:01:02;102299.22;;;14.57;98.11
67099;BME280;54288;53.046;5.668;2023-05-08T06:03:29;102281.25;;;14.20;100.00
67099;BME280;54288;53.046;5.668;2023-05-08T06:05:55;102293.09;;;14.54;100.00
67099;BME280;54288;53.046;5.668;2023-05-08T06:08:20;102278.19;;;15.62;98.48
67099;BME280;54288;53.046;5.668;2023-05-08T06:10:47;102283.84;;;15.41;95.75
67099;BME280;54288;53.046;5.668;2023-05-08T06:13:13;102288.81;;;15.06;97.07
67099;BME280;54288;53.046;5.668;2023-05-08T06:15:39;102281.59;;;14.59;99.42
67099;BME280;54288;53.046;5.668;2023-05-08T06:18:05;102282.81;;;14.36;100.00
67099;BME280;54288;53.046;5.668;2023-05-08T06:20:32;102283.13;;;14.07;100.00
67099;BME280;54288;53.046;5.668;2023-05-08T06:22:59;102276.19;;;14.02;100.00
67099;BME280;54288;53.046;5.668;2023-05-08T06:25:24;102267.75;;;13.70;100.00
67099;BME280;54288;53.046;5.668;2023-05-08T06:30:45;102273.03;;;13.70;100.00
67099;BME280;54288;53.046;5.668;2023-05-08T06:33:11;102267.06;;;13.51;100.00
67099;BME280;54288;53.046;5.668;2023-05-08T06:35:37;102270.47;;;13.64;100.00
67099;BME280;54288;53.046;5.668;2023-05-08T06:38:03;102274.84;;;13.65;100.00
67099;BME280;54288;53.046;5.668;2023-05-08T06:40:29;102276.34;;;13.87;100.00
67099;BME280;54288;53.046;5.668;2023-05-08T06:46:22;102276.66;;;14.96;100.00
67099;BME280;54288;53.046;5.668;2023-05-08T06:48:48;102279.47;;;14.85;99.77
67099;BME280;54288;53.046;5.668;2023-05-08T06:51:13;102264.13;;;15.60;95.87
67099;BME280;54288;53.046;5.668;2023-05-08T06:53:39;102265.53;;;15.29;97.31
67099;BME280;54288;53.046;5.668;2023-05-08T06:56:05;102270.03;;;15.24;99.45
67099;BME280;54288;53.046;5.668;2023-05-08T06:58:31;102271.28;;;15.02;99.67
67099;BME280;54288;53.046;5.668;2023-05-08T07:04:21;102266.19;;;14.90;99.44
67099;BME280;54288;53.046;5.668;2023-05-08T07:06:46;102269.03;;;15.34;98.86
67099;BME280;54288;53.046;5.668;2023-05-08T07:09:12;102269.13;;;15.25;97.80
67099;BME280;54288;53.046;5.668;2023-05-08T07:11:38;102263.09;;;15.18;98.74
67099;BME280;54288;53.046;5.668;2023-05-08T07:14:03;102260.84;;;15.47;98.74
67099;BME280;54288;53.046;5.668;2023-05-08T07:16:29;102261.31;;;15.69;97.00
67099;BME280;54288;53.046;5.668;2023-05-08T07:18:55;102268.66;;;15.53;97.00
67099;BME280;54288;53.046;5.668;2023-05-08T07:21:20;102269.81;;;15.86;95.54
67099;BME280;54288;53.046;5.668;2023-05-08T07:23:46;102266.94;;;16.39;94.59
67099;BME280;54288;53.046;5.668;2023-05-08T07:26:13;102263.50;;;16.34;94.96
67099;BME280;54288;53.046;5.668;2023-05-08T07:28:39;102269.03;;;17.01;92.16
67099;BME280;54288;53.046;5.668;2023-05-08T07:31:05;102266.09;;;17.11;89.46
67099;BME280;54288;53.046;5.668;2023-05-08T07:33:33;102267.19;;;17.03;89.90
67099;BME280;54288;53.046;5.668;2023-05-08T07:35:59;102263.75;;;16.99;89.09
67099;BME280;54288;53.046;5.668;2023-05-08T07:38:25;102257.59;;;17.00;91.17
67099;BME280;54288;53.046;5.668;2023-05-08T07:40:51;102265.81;;;17.58;89.93
67099;BME280;54288;53.046;5.668;2023-05-08T07:43:22;102265.44;;;17.37;87.91
67099;BME280;54288;53.046;5.668;2023-05-08T07:45:48;102262.91;;;17.34;90.19
67099;BME280;54288;53.046;5.668;2023-05-08T07:48:14;102250.44;;;17.04;90.13
67099;BME280;54288;53.046;5.668;2023-05-08T07:50:40;102246.53;;;17.53;90.08
67099;BME280;54288;53.046;5.668;2023-05-08T07:53:05;102262.16;;;17.94;86.17
67099;BME280;54288;53.046;5.668;2023-05-08T07:55:31;102254.38;;;17.56;89.03
67099;BME280;54288;53.046;5.668;2023-05-08T07:57:57;102263.81;;;18.29;84.78
67099;BME280;54288;53.046;5.668;2023-05-08T08:00:23;102257.97;;;17.54;86.94
67099;BME280;54288;53.046;5.668;2023-05-08T08:02:49;102257.75;;;17.93;87.42
67099;BME280;54288;53.046;5.668;2023-05-08T08:05:15;102263.56;;;18.36;86.94
67099;BME280;54288;53.046;5.668;2023-05-08T08:07:40;102262.03;;;18.28;84.41
67099;BME280;54288;53.046;5.668;2023-05-08T08:10:06;102259.44;;;17.97;86.79
67099;BME280;54288;53.046;5.668;2023-05-08T08:12:32;102258.63;;;17.94;87.65
67099;BME280;54288;53.046;5.668;2023-05-08T08:14:58;102262.47;;;18.14;87.07
67099;BME280;54288;53.046;5.668;2023-05-08T08:17:24;102262.75;;;18.04;85.59
67099;BME280;54288;53.046;5.668;2023-05-08T08:19:49;102262.56;;;18.10;86.14
67099;BME280;54288;53.046;5.668;2023-05-08T08:22:15;102260.66;;;17.84;89.25
67099;BME280;54288;53.046;5.668;2023-05-08T08:24:41;102257.31;;;18.39;86.95
67099;BME280;54288;53.046;5.668;2023-05-08T08:27:07;102255.59;;;18.38;86.39
67099;BME280;54288;53.046;5.668;2023-05-08T08:29:32;102245.50;;;18.76;84.23
67099;BME280;54288;53.046;5.668;2023-05-08T08:31:58;102247.38;;;19.28;81.47
67099;BME280;54288;53.046;5.668;2023-05-08T08:34:25;102244.28;;;19.14;80.75
67099;BME280;54288;53.046;5.668;2023-05-08T08:36:50;102238.25;;;19.35;81.45
67099;BME280;54288;53.046;5.668;2023-05-08T08:39:16;102246.75;;;19.20;80.80
67099;BME280;54288;53.046;5.668;2023-05-08T08:41:42;102240.97;;;19.07;81.89
67099;BME280;54288;53.046;5.668;2023-05-08T08:44:08;102235.94;;;19.26;82.49
67099;BME280;54288;53.046;5.668;2023-05-08T08:46:38;102241.22;;;19.76;79.48
67099;BME280;54288;53.046;5.668;2023-05-08T08:49:08;102239.19;;;20.07;76.20
67099;BME280;54288;53.046;5.668;2023-05-08T08:51:53;102241.47;;;19.69;80.42
67099;BME280;54288;53.046;5.668;2023-05-08T08:54:23;102250.13;;;19.98;79.13
67099;BME280;54288;53.046;5.668;2023-05-08T08:56:56;102242.44;;;19.91;78.22
67099;BME280;54288;53.046;5.668;2023-05-08T08:59:26;102246.94;;;20.36;75.99
67099;BME280;54288;53.046;5.668;2023-05-08T09:01:56;102250.88;;;20.49;76.72
67099;BME280;54288;53.046;5.668;2023-05-08T09:04:23;102245.56;;;20.26;75.92
67099;BME280;54288;53.046;5.668;2023-05-08T09:06:52;102244.50;;;20.75;75.71
67099;BME280;54288;53.046;5.668;2023-05-08T09:09:22;102246.72;;;20.64;76.41
67099;BME280;54288;53.046;5.668;2023-05-08T09:11:47;102249.84;;;20.75;74.96
67099;BME280;54288;53.046;5.668;2023-05-08T09:14:13;102247.41;;;20.92;77.37
67099;BME280;54288;53.046;5.668;2023-05-08T09:16:39;102238.69;;;21.08;73.37
67099;BME280;54288;53.046;5.668;2023-05-08T09:19:05;102238.22;;;20.99;78.06
67099;BME280;54288;53.046;5.668;2023-05-08T09:21:31;102241.22;;;21.73;72.56
67099;BME280;54288;53.046;5.668;2023-05-08T09:23:59;102239.63;;;21.69;72.34
67099;BME280;54288;53.046;5.668;2023-05-08T09:26:36;102224.75;;;21.63;72.62
67099;BME280;54288;53.046;5.668;2023-05-08T09:29:13;102234.75;;;21.58;72.36
67099;BME280;54288;53.046;5.668;2023-05-08T09:31:41;102230.53;;;21.13;73.26
67099;BME280;54288;53.046;5.668;2023-05-08T09:34:20;102227.91;;;20.47;76.60
67099;BME280;54288;53.046;5.668;2023-05-08T09:36:49;102224.31;;;20.69;77.71
67099;BME280;54288;53.046;5.668;2023-05-08T09:39:21;102230.13;;;20.57;78.04
67099;BME280;54288;53.046;5.668;2023-05-08T09:42:02;102229.88;;;20.42;78.91
67099;BME280;54288;53.046;5.668;2023-05-08T09:47:18;102230.84;;;21.05;77.91
67099;BME280;54288;53.046;5.668;2023-05-08T09:49:58;102224.94;;;21.19;74.67
67099;BME280;54288;53.046;5.668;2023-05-08T09:52:26;102223.00;;;20.79;76.02
67099;BME280;54288;53.046;5.668;2023-05-08T09:54:56;102229.06;;;20.83;77.74
67099;BME280;54288;53.046;5.668;2023-05-08T09:57:23;102219.81;;;20.93;76.11
67099;BME280;54288;53.046;5.668;2023-05-08T09:59:49;102220.41;;;21.41;75.09
67099;BME280;54288;53.046;5.668;2023-05-08T10:02:15;102222.84;;;22.05;75.28
67099;BME280;54288;53.046;5.668;2023-05-08T10:04:41;102218.69;;;21.60;73.85
67099;BME280;54288;53.046;5.668;2023-05-08T10:07:07;102222.50;;;22.31;72.81
67099;BME280;54288;53.046;5.668;2023-05-08T10:09:33;102220.16;;;22.05;71.38
67099;BME280;54288;53.046;5.668;2023-05-08T10:11:59;102217.63;;;21.84;72.14
67099;BME280;54288;53.046;5.668;2023-05-08T10:14:24;102218.75;;;22.17;72.69
67099;BME280;54288;53.046;5.668;2023-05-08T10:16:51;102215.13;;;22.55;70.63
67099;BME280;54288;53.046;5.668;2023-05-08T10:19:19;102210.28;;;22.81;67.40
67099;BME280;54288;53.046;5.668;2023-05-08T10:21:50;102216.53;;;22.45;71.17
67099;BME280;54288;53.046;5.668;2023-05-08T10:24:30;102224.31;;;22.68;68.53
67099;BME280;54288;53.046;5.668;2023-05-08T10:27:16;102212.25;;;22.78;67.63
67099;BME280;54288;53.046;5.668;2023-05-08T10:29:51;102212.75;;;23.03;66.96
67099;BME280;54288;53.046;5.668;2023-05-08T10:32:19;102230.16;;;22.39;69.86
67099;BME280;54288;53.046;5.668;2023-05-08T10:34:51;102215.00;;;22.58;69.36
67099;BME280;54288;53.046;5.668;2023-05-08T10:37:17;102220.59;;;22.15;71.51
67099;BME280;54288;53.046;5.668;2023-05-08T10:39:44;102210.47;;;23.12;70.41
67099;BME280;54288;53.046;5.668;2023-05-08T10:44:39;102204.72;;;23.21;67.17
67099;BME280;54288;53.046;5.668;2023-05-08T10:55:32;102206.38;;;22.88;68.80
67099;BME280;54288;53.046;5.668;2023-05-08T10:58:09;102205.50;;;23.73;66.68
67099;BME280;54288;53.046;5.668;2023-05-08T11:03:22;102210.53;;;23.11;68.16
67099;BME280;54288;53.046;5.668;2023-05-08T11:05:50;102205.63;;;22.68;70.64
67099;BME280;54288;53.046;5.668;2023-05-08T11:08:23;102207.06;;;22.19;73.39
67099;BME280;54288;53.046;5.668;2023-05-08T11:19:22;102200.94;;;21.99;76.31
67099;BME280;54288;53.046;5.668;2023-05-08T11:27:32;102183.69;;;22.61;71.95
67099;BME280;54288;53.046;5.668;2023-05-08T11:35:50;102181.41;;;23.23;70.90
67099;BME280;54288;53.046;5.668;2023-05-08T11:46:13;102174.28;;;23.73;69.23
67099;BME280;54288;53.046;5.668;2023-05-08T11:48:39;102185.47;;;24.29;64.02
67099;BME280;54288;53.046;5.668;2023-05-08T11:51:05;102177.44;;;23.97;65.13
67099;BME280;54288;53.046;5.668;2023-05-08T11:53:31;102172.31;;;24.25;62.16
67099;BME280;54288;53.046;5.668;2023-05-08T11:55:59;102171.97;;;24.15;62.77
67099;BME280;54288;53.046;5.668;2023-05-08T11:58:25;102171.19;;;23.81;64.61
67099;BME280;54288;53.046;5.668;2023-05-08T12:00:51;102173.41;;;23.23;67.16
67099;BME280;54288;53.046;5.668;2023-05-08T12:03:18;102171.47;;;23.08;70.57
67099;BME280;54288;53.046;5.668;2023-05-08T12:05:46;102164.16;;;22.78;69.70
67099;BME280;54288;53.046;5.668;2023-05-08T12:08:13;102168.81;;;22.37;70.98
67099;BME280;54288;53.046;5.668;2023-05-08T12:13:25;102165.38;;;23.90;66.69
67099;BME280;54288;53.046;5.668;2023-05-08T12:15:55;102166.09;;;24.09;65.59
67099;BME280;54288;53.046;5.668;2023-05-08T12:18:22;102163.59;;;24.52;62.34
67099;BME280;54288;53.046;5.668;2023-05-08T12:20:53;102162.06;;;24.17;63.07
67099;BME280;54288;53.046;5.668;2023-05-08T12:23:19;102170.38;;;23.96;65.54
67099;BME280;54288;53.046;5.668;2023-05-08T12:25:45;102165.22;;;23.93;66.34
67099;BME280;54288;53.046;5.668;2023-05-08T12:28:11;102165.00;;;23.63;67.77
67099;BME280;54288;53.046;5.668;2023-05-08T12:30:37;102172.34;;;23.60;69.60
67099;BME280;54288;53.046;5.668;2023-05-08T12:33:03;102166.69;;;23.81;69.93
67099;BME280;54288;53.046;5.668;2023-05-08T12:35:30;102165.91;;;23.96;70.09
67099;BME280;54288;53.046;5.668;2023-05-08T12:38:00;102169.50;;;23.46;69.09
67099;BME280;54288;53.046;5.668;2023-05-08T12:40:34;102167.59;;;23.32;72.79
67099;BME280;54288;53.046;5.668;2023-05-08T12:43:01;102163.16;;;23.48;71.63
67099;BME280;54288;53.046;5.668;2023-05-08T12:45:30;102161.41;;;23.47;72.20
67099;BME280;54288;53.046;5.668;2023-05-08T12:48:00;102155.16;;;23.81;71.87
67099;BME280;54288;53.046;5.668;2023-05-08T12:50:36;102161.38;;;23.64;70.11
67099;BME280;54288;53.046;5.668;2023-05-08T12:53:04;102159.00;;;23.09;73.37
67099;BME280;54288;53.046;5.668;2023-05-08T12:55:31;102153.78;;;22.89;75.03
67099;BME280;54288;53.046;5.668;2023-05-08T12:58:06;102167.47;;;23.00;75.82
67099;BME280;54288;53.046;5.668;2023-05-08T13:00:44;102158.94;;;23.27;75.32
67099;BME280;54288;53.046;5.668;2023-05-08T13:03:13;102156.56;;;23.38;74.28
67099;BME280;54288;53.046;5.668;2023-05-08T13:05:43;102150.22;;;23.41;74.77
67099;BME280;54288;53.046;5.668;2023-05-08T13:08:10;102151.72;;;23.62;73.38
67099;BME280;54288;53.046;5.668;2023-05-08T13:10:49;102154.44;;;23.28;73.30
67099;BME280;54288;53.046;5.668;2023-05-08T13:13:17;102149.47;;;23.37;75.77
67099;BME280;54288;53.046;5.668;2023-05-08T13:15:44;102142.47;;;23.52;73.56
67099;BME280;54288;53.046;5.668;2023-05-08T13:18:10;102140.88;;;23.80;72.52
67099;BME280;54288;53.046;5.668;2023-05-08T13:20:37;102139.28;;;23.28;72.13
67099;BME280;54288;53.046;5.668;2023-05-08T13:23:04;102152.56;;;23.30;72.06
67099;BME280;54288;53.046;5.668;2023-05-08T13:25:30;102144.25;;;23.19;75.14
67099;BME280;54288;53.046;5.668;2023-05-08T13:27:57;102140.28;;;23.09;74.75
67099;BME280;54288;53.046;5.668;2023-05-08T13:30:23;102141.81;;;23.64;75.01
67099;BME280;54288;53.046;5.668;2023-05-08T13:32:49;102143.13;;;24.05;71.67
67099;BME280;54288;53.046;5.668;2023-05-08T13:35:15;102145.28;;;24.45;68.07
67099;BME280;54288;53.046;5.668;2023-05-08T13:37:41;102137.16;;;24.31;68.81
67099;BME280;54288;53.046;5.668;2023-05-08T13:40:07;102139.28;;;23.93;70.27
67099;BME280;54288;53.046;5.668;2023-05-08T13:42:33;102137.56;;;23.92;70.53
67099;BME280;54288;53.046;5.668;2023-05-08T13:44:59;102124.56;;;23.69;68.44
67099;BME280;54288;53.046;5.668;2023-05-08T13:47:26;102132.88;;;23.80;70.84
67099;BME280;54288;53.046;5.668;2023-05-08T13:49:52;102121.34;;;24.11;67.90
67099;BME280;54288;53.046;5.668;2023-05-08T13:52:18;102122.03;;;24.14;66.52
67099;BME280;54288;53.046;5.668;2023-05-08T13:54:43;102120.59;;;24.24;67.49
67099;BME280;54288;53.046;5.668;2023-05-08T13:57:09;102118.19;;;23.72;66.62
67099;BME280;54288;53.046;5.668;2023-05-08T13:59:35;102122.41;;;23.93;67.67
67099;BME280;54288;53.046;5.668;2023-05-08T14:02:01;102112.38;;;24.12;64.72
67099;BME280;54288;53.046;5.668;2023-05-08T14:04:27;102116.69;;;24.14;66.39
67099;BME280;54288;53.046;5.668;2023-05-08T14:06:52;102122.38;;;24.39;62.54
67099;BME280;54288;53.046;5.668;2023-05-08T14:09:19;102122.94;;;24.15;63.48
67099;BME280;54288;53.046;5.668;2023-05-08T14:11:44;102116.50;;;24.02;64.01
67099;BME280;54288;53.046;5.668;2023-05-08T14:14:10;102125.88;;;23.78;65.26
67099;BME280;54288;53.046;5.668;2023-05-08T14:16:36;102119.75;;;23.76;65.43
67099;BME280;54288;53.046;5.668;2023-05-08T14:19:01;102117.69;;;23.81;64.62
67099;BME280;54288;53.046;5.668;2023-05-08T14:21:27;102124.28;;;23.74;64.37
67099;BME280;54288;53.046;5.668;2023-05-08T14:23:53;102117.47;;;23.68;65.12
67099;BME280;54288;53.046;5.668;2023-05-08T14:26:19;102119.19;;;23.54;64.98
67099;BME280;54288;53.046;5.668;2023-05-08T14:28:45;102120.22;;;23.51;64.08
67099;BME280;54288;53.046;5.668;2023-05-08T14:31:11;102126.06;;;23.75;64.11
67099;BME280;54288;53.046;5.668;2023-05-08T14:33:37;102111.44;;;23.65;63.95
67099;BME280;54288;53.046;5.668;2023-05-08T14:36:03;102111.84;;;23.25;63.88
67099;BME280;54288;53.046;5.668;2023-05-08T14:38:28;102115.03;;;22.80;69.41
67099;BME280;54288;53.046;5.668;2023-05-08T14:40:54;102109.31;;;22.88;71.22
67099;BME280;54288;53.046;5.668;2023-05-08T14:43:21;102111.50;;;23.14;71.05
67099;BME280;54288;53.046;5.668;2023-05-08T14:45:47;102104.84;;;23.55;70.70
67099;BME280;54288;53.046;5.668;2023-05-08T14:48:13;102102.22;;;23.38;69.06
67099;BME280;54288;53.046;5.668;2023-05-08T14:50:39;102097.19;;;23.15;69.72
67099;BME280;54288;53.046;5.668;2023-05-08T14:53:05;102101.44;;;23.36;67.00
67099;BME280;54288;53.046;5.668;2023-05-08T14:55:30;102101.09;;;23.74;66.98
67099;BME280;54288;53.046;5.668;2023-05-08T14:57:56;102097.97;;;23.34;66.99
67099;BME280;54288;53.046;5.668;2023-05-08T15:00:22;102100.13;;;23.27;68.29
67099;BME280;54288;53.046;5.668;2023-05-08T15:02:48;102101.47;;;23.19;69.56
67099;BME280;54288;53.046;5.668;2023-05-08T15:05:14;102094.22;;;23.21;72.80
67099;BME280;54288;53.046;5.668;2023-05-08T15:07:39;102096.53;;;23.44;73.33
67099;BME280;54288;53.046;5.668;2023-05-08T15:10:06;102088.41;;;23.78;71.02
67099;BME280;54288;53.046;5.668;2023-05-08T15:12:31;102086.22;;;24.01;68.96
67099;BME280;54288;53.046;5.668;2023-05-08T15:14:57;102098.84;;;23.82;64.04
67099;BME280;54288;53.046;5.668;2023-05-08T15:17:23;102087.31;;;24.13;66.07
67099;BME280;54288;53.046;5.668;2023-05-08T15:19:49;102083.69;;;23.98;64.13
67099;BME280;54288;53.046;5.668;2023-05-08T15:22:15;102086.34;;;23.35;66.93
67099;BME280;54288;53.046;5.668;2023-05-08T15:24:42;102081.09;;;23.33;67.82
67099;BME280;54288;53.046;5.668;2023-05-08T15:27:08;102078.25;;;23.02;65.92
67099;BME280;54288;53.046;5.668;2023-05-08T15:29:35;102080.56;;;22.76;66.77
67099;BME280;54288;53.046;5.668;2023-05-08T15:32:01;102080.09;;;23.02;67.48
67099;BME280;54288;53.046;5.668;2023-05-08T15:34:27;102073.63;;;23.06;68.60
67099;BME280;54288;53.046;5.668;2023-05-08T15:36:52;102075.03;;;23.13;68.93
67099;BME280;54288;53.046;5.668;2023-05-08T15:39:18;102072.22;;;22.99;68.89
67099;BME280;54288;53.046;5.668;2023-05-08T15:41:44;102063.09;;;22.52;69.92
67099;BME280;54288;53.046;5.668;2023-05-08T15:44:09;102065.84;;;22.67;70.38
67099;BME280;54288;53.046;5.668;2023-05-08T15:46:35;102058.88;;;22.82;66.25
67099;BME280;54288;53.046;5.668;2023-05-08T15:49:01;102062.41;;;22.65;66.93
67099;BME280;54288;53.046;5.668;2023-05-08T15:51:30;102066.50;;;22.89;66.40
67099;BME280;54288;53.046;5.668;2023-05-08T15:53:56;102065.16;;;22.98;67.08
67099;BME280;54288;53.046;5.668;2023-05-08T15:56:22;102066.09;;;22.80;66.72
67099;BME280;54288;53.046;5.668;2023-05-08T15:58:50;102066.34;;;22.58;67.46
67099;BME280;54288;53.046;5.668;2023-05-08T16:01:17;102067.38;;;22.56;69.38
67099;BME280;54288;53.046;5.668;2023-05-08T16:03:43;102074.75;;;22.51;71.06
67099;BME280;54288;53.046;5.668;2023-05-08T16:06:08;102065.78;;;22.33;69.99
67099;BME280;54288;53.046;5.668;2023-05-08T16:08:34;102068.47;;;22.33;70.01
67099;BME280;54288;53.046;5.668;2023-05-08T16:11:00;102065.38;;;22.24;70.51
67099;BME280;54288;53.046;5.668;2023-05-08T16:13:26;102065.34;;;22.07;71.08
67099;BME280;54288;53.046;5.668;2023-05-08T16:15:52;102078.28;;;21.97;72.71
67099;BME280;54288;53.046;5.668;2023-05-08T16:18:18;102076.69;;;21.93;72.75
67099;BME280;54288;53.046;5.668;2023-05-08T16:20:44;102069.25;;;22.00;71.98
67099;BME280;54288;53.046;5.668;2023-05-08T16:23:10;102075.38;;;22.02;72.28
67099;BME280;54288;53.046;5.668;2023-05-08T16:25:42;102068.31;;;22.01;72.56
67099;BME280;54288;53.046;5.668;2023-05-08T16:28:07;102078.97;;;22.01;72.26
67099;BME280;54288;53.046;5.668;2023-05-08T16:30:33;102084.31;;;22.01;75.58
67099;BME280;54288;53.046;5.668;2023-05-08T16:32:59;102088.66;;;22.03;79.42
67099;BME280;54288;53.046;5.668;2023-05-08T16:35:28;102089.59;;;21.84;83.74
67099;BME280;54288;53.046;5.668;2023-05-08T16:37:54;102095.50;;;21.52;85.50
67099;BME280;54288;53.046;5.668;2023-05-08T16:40:20;102097.44;;;21.10;88.32
67099;BME280;54288;53.046;5.668;2023-05-08T16:42:45;102101.97;;;20.86;90.79
67099;BME280;54288;53.046;5.668;2023-05-08T16:45:11;102097.16;;;20.54;91.05
67099;BME280;54288;53.046;5.668;2023-05-08T16:47:37;102095.88;;;20.43;90.07
67099;BME280;54288;53.046;5.668;2023-05-08T16:50:04;102107.63;;;20.16;91.37
67099;BME280;54288;53.046;5.668;2023-05-08T16:52:29;102102.19;;;19.96;92.52
67099;BME280;54288;53.046;5.668;2023-05-08T16:54:59;102110.16;;;19.74;93.20
67099;BME280;54288;53.046;5.668;2023-05-08T16:57:25;102104.75;;;19.53;93.12
67099;BME280;54288;53.046;5.668;2023-05-08T16:59:52;102103.59;;;19.37;94.05
67099;BME280;54288;53.046;5.668;2023-05-08T17:02:17;102105.22;;;19.41;93.07
67099;BME280;54288;53.046;5.668;2023-05-08T17:04:47;102114.50;;;19.29;93.47
67099;BME280;54288;53.046;5.668;2023-05-08T17:07:14;102108.72;;;19.17;94.45
67099;BME280;54288;53.046;5.668;2023-05-08T17:09:40;102110.66;;;18.87;95.84
67099;BME280;54288;53.046;5.668;2023-05-08T17:12:09;102110.31;;;18.72;97.06
67099;BME280;54288;53.046;5.668;2023-05-08T17:14:35;102100.31;;;18.54;97.22
67099;BME280;54288;53.046;5.668;2023-05-08T17:17:03;102101.03;;;18.59;97.98
67099;BME280;54288;53.046;5.668;2023-05-08T17:19:29;102102.97;;;18.54;98.99
67099;BME280;54288;53.046;5.668;2023-05-08T17:21:55;102101.41;;;18.48;98.09
67099;BME280;54288;53.046;5.668;2023-05-08T17:24:20;102097.88;;;18.48;99.20
67099;BME280;54288;53.046;5.668;2023-05-08T17:26:46;102087.72;;;18.34;99.00
67099;BME280;54288;53.046;5.668;2023-05-08T17:29:15;102090.56;;;18.27;99.08
67099;BME280;54288;53.046;5.668;2023-05-08T17:31:40;102090.69;;;18.24;99.69
67099;BME280;54288;53.046;5.668;2023-05-08T17:34:06;102092.63;;;18.19;100.00
67099;BME280;54288;53.046;5.668;2023-05-08T17:36:32;102093.19;;;18.28;100.00
67099;BME280;54288;53.046;5.668;2023-05-08T17:38:57;102093.56;;;18.16;100.00
67099;BME280;54288;53.046;5.668;2023-05-08T17:41:23;102099.53;;;17.95;100.00
67099;BME280;54288;53.046;5.668;2023-05-08T17:43:51;102102.41;;;17.88;100.00
67099;BME280;54288;53.046;5.668;2023-05-08T17:46:17;102104.19;;;17.89;100.00
67099;BME280;54288;53.046;5.668;2023-05-08T17:48:42;102097.41;;;17.79;100.00
67099;BME280;54288;53.046;5.668;2023-05-08T17:51:12;102092.13;;;17.79;100.00
67099;BME280;54288;53.046;5.668;2023-05-08T17:53:38;102089.53;;;17.76;100.00
67099;BME280;54288;53.046;5.668;2023-05-08T17:56:05;102088.63;;;17.77;100.00
67099;BME280;54288;53.046;5.668;2023-05-08T17:58:30;102090.66;;;17.69;100.00
67099;BME280;54288;53.046;5.668;2023-05-08T18:00:56;102099.84;;;17.57;100.00
67099;BME280;54288;53.046;5.668;2023-05-08T18:03:22;102094.75;;;17.50;100.00
67099;BME280;54288;53.046;5.668;2023-05-08T18:05:48;102097.25;;;17.54;100.00
67099;BME280;54288;53.046;5.668;2023-05-08T18:08:14;102094.66;;;17.53;100.00
67099;BME280;54288;53.046;5.668;2023-05-08T18:10:40;102088.78;;;17.42;100.00
67099;BME280;54288;53.046;5.668;2023-05-08T18:13:05;102094.34;;;17.33;100.00
67099;BME280;54288;53.046;5.668;2023-05-08T18:15:31;102100.69;;;17.26;100.00
67099;BME280;54288;53.046;5.668;2023-05-08T18:18:01;102103.28;;;17.29;100.00
67099;BME280;54288;53.046;5.668;2023-05-08T18:20:26;102093.66;;;17.25;100.00
67099;BME280;54288;53.046;5.668;2023-05-08T18:22:52;102096.31;;;17.25;100.00
67099;BME280;54288;53.046;5.668;2023-05-08T18:25:18;102088.53;;;17.19;100.00
67099;BME280;54288;53.046;5.668;2023-05-08T18:27:43;102093.06;;;17.15;100.00
67099;BME280;54288;53.046;5.668;2023-05-08T18:30:13;102095.56;;;17.20;100.00
67099;BME280;54288;53.046;5.668;2023-05-08T18:32:38;102093.94;;;17.16;100.00
67099;BME280;54288;53.046;5.668;2023-05-08T18:35:04;102100.06;;;17.18;100.00
67099;BME280;54288;53.046;5.668;2023-05-08T18:37:30;102101.94;;;17.13;100.00
67099;BME280;54288;53.046;5.668;2023-05-08T18:39:56;102098.63;;;17.06;100.00
67099;BME280;54288;53.046;5.668;2023-05-08T18:42:21;102101.38;;;17.02;100.00
67099;BME280;54288;53.046;5.668;2023-05-08T18:44:47;102100.63;;;16.97;100.00
67099;BME280;54288;53.046;5.668;2023-05-08T18:47:13;102095.47;;;16.92;100.00
67099;BME280;54288;53.046;5.668;2023-05-08T18:49:38;102093.94;;;16.84;100.00
67099;BME280;54288;53.046;5.668;2023-05-08T18:52:04;102099.09;;;16.88;100.00
67099;BME280;54288;53.046;5.668;2023-05-08T18:54:30;102089.41;;;16.87;100.00
67099;BME280;54288;53.046;5.668;2023-05-08T18:56:55;102080.63;;;16.87;100.00
67099;BME280;54288;53.046;5.668;2023-05-08T18:59:21;102080.63;;;16.87;100.00